Manila Express — VRCX7 — position and weather

sailwx.info

Track history (hours):
 
Tides and Currents Weather Stations Pressure Air Temp Water Temp Dewpoint Dewpoint Depression Visibility Wind Speed Wind Dir Waves Ship Positions

Manila Express

Last reported at 2016-Jul-30 02:34 UTC. Time now 2016-Jul-30 03:29 UTC.
Position N 44°24' E 008°54'.

Length 260 m; draft 10 m.

Type: Ship (hazmat cat A). MMSI: 477830800.

Date/timePositionNaut miles runAvg speedWind from/ knotsBaromVisibWave heightAir tempDewpointWater temp
2016-Jul-30 02:34N 44°24' E 008°54'0 0.0
2016-Jul-30 01:33N 44°24' E 008°54'0 0.0
2016-Jul-30 00:33N 44°24' E 008°54'0 0.0
2016-Jul-29 23:34N 44°24' E 008°54'0 0.0
2016-Jul-29 22:33N 44°24' E 008°54'0 0.0
2016-Jul-29 21:33N 44°24' E 008°54'0 0.0
2016-Jul-29 20:34N 44°24' E 008°54'0 0.0
2016-Jul-29 19:34N 44°24' E 008°54'0 0.0
2016-Jul-29 18:34N 44°24' E 008°54'0 0.0
2016-Jul-29 17:33N 44°24' E 008°54'0 0.0
2016-Jul-29 16:34N 44°24' E 008°54'0 0.0
2016-Jul-29 15:34N 44°24' E 008°54'0 0.0
2016-Jul-29 14:33N 44°24' E 008°54'0 0.0
2016-Jul-29 13:34N 44°24' E 008°54'0 0.0
2016-Jul-29 12:33N 44°24' E 008°54'0 0.0
2016-Jul-29 11:33N 44°24' E 008°54'0 0.0
2016-Jul-29 10:33N 44°24' E 008°54'0 0.0
2016-Jul-29 09:33N 44°24' E 008°54'0 0.0
2016-Jul-29 08:33N 44°24' E 008°54'0 0.0
2016-Jul-29 07:33N 44°24' E 008°54'0 0.0
2016-Jul-29 06:33N 44°24' E 008°54'0 0.0
2016-Jul-29 05:33N 44°24' E 008°54'1 0.6
2016-Jul-29 04:33N 44°24' E 008°54'5 4.7
2016-Jul-29 03:34N 44°20' E 008°59'7 7.1
2016-Jul-29 02:34N 44°15' E 008°51'1211.8
2016-Jul-29 01:33N 44°08' E 008°39'1916.5
2016-Jul-29 00:23N 43°55' E 008°19'1316.3
2016-Jul-28 23:33N 43°46' E 008°05'1616.3
2016-Jul-28 22:33N 43°35' E 007°47'1616.2
2016-Jul-28 21:33N 43°25' E 007°30'1716.5
2016-Jul-28 20:33N 43°14' E 007°13'1222.1
2016-Jul-28 20:00N 43°06' E 007°00'410.0 110 / 91027.5 5.4 1.525.117.3
2016-Jul-28 19:34N 43°03' E 006°56'1916.8
2016-Jul-28 18:24N 42°50' E 006°36'1616.8
2016-Jul-28 17:28N 42°40' E 006°20'2317.0
2016-Jul-28 16:05N 42°24' E 005°56'1517.2
2016-Jul-28 15:12N 42°14' E 005°40'11616.7
2016-Jul-28 08:16N 40°58' E 003°44'1521.5
2016-Jul-28 07:33N 40°48' E 003°28'2720.3
2016-Jul-28 06:12N 40°30' E 003°01'1116.9
2016-Jul-28 05:33N 40°23' E 002°50'1717.0
2016-Jul-28 04:33N 40°12' E 002°33'1717.1
2016-Jul-28 03:33N 40°01' E 002°16'1717.0
2016-Jul-28 02:33N 39°49' E 001°60'2017.2
2016-Jul-28 01:24N 39°37' E 001°40'1517.2
2016-Jul-28 00:33N 39°27' E 001°26'2317.3
2016-Jul-27 23:12N 39°07' E 001°09'1116.8
2016-Jul-27 22:33N 38°58' E 001°02'1716.9
2016-Jul-27 21:33N 38°43' E 000°51'1616.7
2016-Jul-27 20:33N 38°29' E 000°40'1716.8
2016-Jul-27 19:33N 38°15' E 000°29'1817.6
2016-Jul-27 18:33N 37°60' E 000°17'1817.9
2016-Jul-27 17:33N 37°44' E 000°06'1717.1
2016-Jul-27 16:33N 37°30' W 000°05'1717.0
2016-Jul-27 15:33N 37°15' W 000°16'1716.7
2016-Jul-27 14:33N 37°05' W 000°33'1717.3
2016-Jul-27 13:33N 36°57' W 000°52'2517.5
2016-Jul-27 12:06N 36°44' W 001°20'1017.6
2016-Jul-27 11:32N 36°40' W 001°30'18216.6
2016-Jul-27 00:33N 36°01' W 005°12'1616.5
2016-Jul-26 23:33N 35°56' W 005°31'2114.9
2016-Jul-26 22:08N 35°53' W 005°57'5916.4
2016-Jul-26 18:33N 36°02' W 007°09'1817.6
2016-Jul-26 17:33N 36°07' W 007°29'1717.5
2016-Jul-26 16:33N 36°12' W 007°50'1817.7
2016-Jul-26 15:33N 36°18' W 008°11'1817.8
2016-Jul-26 14:33N 36°23' W 008°32'1817.7
2016-Jul-26 13:34N 36°27' W 008°53'1817.5
2016-Jul-26 12:33N 36°32' W 009°15'1717.3
2016-Jul-26 11:33N 36°44' W 009°30'1717.4
2016-Jul-26 10:33N 36°60' W 009°38'1817.8
2016-Jul-26 09:33N 37°17' W 009°43'1817.7
2016-Jul-26 08:33N 37°35' W 009°48'1818.2
2016-Jul-26 07:33N 37°52' W 009°52'1818.1
2016-Jul-26 06:33N 38°10' W 009°57'1818.3
2016-Jul-26 05:33N 38°28' W 010°02'1817.9
2016-Jul-26 04:33N 38°46' W 010°07'1817.9
2016-Jul-26 03:33N 39°03' W 010°07'1818.0
2016-Jul-26 02:33N 39°21' W 010°07'1818.2
2016-Jul-26 01:33N 39°40' W 010°07'1817.9
2016-Jul-26 00:33N 39°58' W 010°07'3618.0
2016-Jul-25 22:32N 40°34' W 010°08'53218.2
2016-Jul-24 17:17N 48°53' W 005°48'1315.6
2016-Jul-24 16:28N 48°60' W 005°32'1415.7
2016-Jul-24 15:33N 49°08' W 005°13'6616.5
2016-Jul-24 11:33N 49°41' W 003°46'1514.7
2016-Jul-24 10:30N 49°49' W 003°25'1414.1
2016-Jul-24 09:31N 49°55' W 003°06'1414.2
2016-Jul-24 08:33N 50°01' W 002°47'1515.1
2016-Jul-24 07:33N 50°05' W 002°24'1915.9
2016-Jul-24 06:20N 50°00' W 001°55'1818.6
2016-Jul-24 05:23N 49°53' W 001°30'1719.8
2016-Jul-24 04:33N 49°48' W 001°06'1818.5
2016-Jul-24 03:33N 49°42' W 000°39'1717.2
2016-Jul-24 02:34N 49°34' W 000°15'1514.7
2016-Jul-24 01:33N 49°29' E 000°06'2 2.0
2016-Jul-24 00:34N 49°28' E 000°09'0 0.0
2016-Jul-23 23:32N 49°28' E 000°09'0 0.0
2016-Jul-23 22:32N 49°28' E 000°09'0 0.0
2016-Jul-23 21:32N 49°28' E 000°09'0 0.0
2016-Jul-23 20:32N 49°28' E 000°09'0 0.0
2016-Jul-23 19:32N 49°28' E 000°09'0 0.0
2016-Jul-23 18:32N 49°28' E 000°09'0 0.0
2016-Jul-23 17:32N 49°28' E 000°09'0 0.0
2016-Jul-23 16:32N 49°28' E 000°09'0 0.0
2016-Jul-23 15:32N 49°28' E 000°09'0 0.0
2016-Jul-23 14:32N 49°28' E 000°09'0 0.0
2016-Jul-23 13:32N 49°28' E 000°09'0 0.0
2016-Jul-23 12:32N 49°28' E 000°09'4 3.7
2016-Jul-23 11:34N 49°29' E 000°04'1111.5
2016-Jul-23 10:33N 49°33' W 000°13'1312.6
2016-Jul-23 09:33N 49°42' W 000°27'1313.2
2016-Jul-23 08:33N 49°55' W 000°25'1515.3
2016-Jul-23 07:33N 50°10' W 000°18'1515.4
2016-Jul-23 06:33N 50°24' W 000°10'3316.3
2016-Jul-23 04:33N 50°37' E 000°37'1616.3
2016-Jul-23 03:33N 50°47' E 000°57'1514.8
2016-Jul-23 02:33N 50°57' E 001°15'1313.1
2016-Jul-23 01:33N 51°05' E 001°31'1212.3
2016-Jul-23 00:33N 51°14' E 001°45'1515.0
2016-Jul-22 23:33N 51°27' E 001°55'1716.8
2016-Jul-22 22:33N 51°40' E 002°13'1716.8
2016-Jul-22 21:33N 51°52' E 002°32'1717.2
2016-Jul-22 20:33N 52°05' E 002°50'1717.1
2016-Jul-22 19:33N 52°18' E 003°09'1616.2
2016-Jul-22 18:33N 52°31' E 003°23'1916.6
2016-Jul-22 17:24N 52°47' E 003°43'1616.6
2016-Jul-22 16:27N 52°59' E 003°60'1617.3
2016-Jul-22 15:33N 53°09' E 004°20'1818.0
2016-Jul-22 14:33N 53°25' E 004°33'1818.4
2016-Jul-22 13:33N 53°34' E 004°59'1818.5
2016-Jul-22 12:33N 53°40' E 005°29'1717.5
2016-Jul-22 11:33N 53°45' E 005°57'1615.6
2016-Jul-22 10:33N 53°50' E 006°22'1514.7
2016-Jul-22 09:33N 53°54' E 006°46'1514.5
2016-Jul-22 08:33N 53°57' E 007°10'1515.3
2016-Jul-22 07:33N 54°01' E 007°36'2914.4
2016-Jul-22 05:33N 53°59' E 008°24'1616.4
2016-Jul-22 04:33N 53°50' E 008°48'1414.3
2016-Jul-22 03:33N 53°53' E 009°12'1211.9
2016-Jul-22 02:33N 53°44' E 009°26'1010.4
2016-Jul-22 01:34N 53°36' E 009°36'9 8.7
2016-Jul-22 00:34N 53°33' E 009°50'3 2.8
2016-Jul-21 23:31N 53°32' E 009°55'0 0.0
2016-Jul-21 22:31N 53°32' E 009°55'0 0.0
2016-Jul-21 21:31N 53°32' E 009°55'0 0.0
2016-Jul-21 20:31N 53°32' E 009°55'0 0.0
2016-Jul-21 19:31N 53°32' E 009°55'0 0.0
2016-Jul-21 18:31N 53°32' E 009°55'0 0.0
2016-Jul-21 17:31N 53°32' E 009°55'0 0.0
2016-Jul-21 16:31N 53°32' E 009°55'0 0.0
2016-Jul-21 15:31N 53°32' E 009°55'0 0.0
2016-Jul-21 14:31N 53°32' E 009°55'0 0.0
2016-Jul-21 13:31N 53°32' E 009°55'0 0.0
2016-Jul-21 12:34N 53°32' E 009°55'0 0.0
2016-Jul-21 11:33N 53°32' E 009°55'0 0.0
2016-Jul-21 10:33N 53°32' E 009°55'0 0.0
2016-Jul-21 09:33N 53°32' E 009°55'0 0.0
2016-Jul-21 08:33N 53°32' E 009°55'0 0.0
2016-Jul-21 07:33N 53°32' E 009°55'0 0.0
2016-Jul-21 06:33N 53°32' E 009°55'0 0.0
2016-Jul-21 05:33N 53°32' E 009°55'0 0.0
2016-Jul-21 04:33N 53°32' E 009°55'0 0.0
2016-Jul-21 03:33N 53°32' E 009°55'0 0.0
2016-Jul-21 02:33N 53°32' E 009°55'0 0.0
2016-Jul-21 01:33N 53°32' E 009°55'0 0.0
2016-Jul-21 00:33N 53°32' E 009°55'0 0.0
2016-Jul-20 23:33N 53°32' E 009°55'0 0.0
2016-Jul-20 22:33N 53°32' E 009°55'0 0.0
2016-Jul-20 21:33N 53°32' E 009°55'0 0.0
2016-Jul-20 20:33N 53°32' E 009°55'0 0.0
2016-Jul-20 19:33N 53°32' E 009°55'0 0.0
2016-Jul-20 18:33N 53°32' E 009°55'0 0.0
2016-Jul-20 17:33N 53°32' E 009°55'0 0.0
2016-Jul-20 16:33N 53°32' E 009°55'0 0.0
2016-Jul-20 15:33N 53°32' E 009°55'0 0.0
2016-Jul-20 14:33N 53°32' E 009°55'0 0.0
2016-Jul-20 13:33N 53°32' E 009°55'0 0.0
2016-Jul-20 12:34N 53°32' E 009°55'9 8.8
2016-Jul-20 11:34N 53°34' E 009°40'1312.9
2016-Jul-20 10:34N 53°44' E 009°26'1413.7
2016-Jul-20 09:34N 53°53' E 009°08'1312.7
2016-Jul-20 08:33N 53°50' E 008°47'1413.6
2016-Jul-20 07:33N 53°59' E 008°28'1514.7
2016-Jul-20 06:34N 53°59' E 008°04'1615.5
2016-Jul-20 05:34N 53°57' E 007°37'1818.2
2016-Jul-20 04:34N 53°52' E 007°07'1818.2
2016-Jul-20 03:34N 53°48' E 006°38'  
Track history (hours):
 
Tides and Currents Weather Stations Pressure Air Temp Water Temp Dewpoint Dewpoint Depression Visibility Wind Speed Wind Dir Waves Ship Positions

Manila Express

Last reported at 2016-Jul-30 02:34 UTC. Time now 2016-Jul-30 03:29 UTC.
Position N 44°24' E 008°54'.

Length 260 m; draft 10 m.

Type: Ship (hazmat cat A). MMSI: 477830800.

Date/timePositionNaut miles runAvg speedWind from/ knotsBaromVisibWave heightAir tempDewpointWater temp
2016-Jul-30 02:34N 44°24' E 008°54'0 0.0
2016-Jul-30 01:33N 44°24' E 008°54'0 0.0
2016-Jul-30 00:33N 44°24' E 008°54'0 0.0
2016-Jul-29 23:34N 44°24' E 008°54'0 0.0
2016-Jul-29 22:33N 44°24' E 008°54'0 0.0
2016-Jul-29 21:33N 44°24' E 008°54'0 0.0
2016-Jul-29 20:34N 44°24' E 008°54'0 0.0
2016-Jul-29 19:34N 44°24' E 008°54'0 0.0
2016-Jul-29 18:34N 44°24' E 008°54'0 0.0
2016-Jul-29 17:33N 44°24' E 008°54'0 0.0
2016-Jul-29 16:34N 44°24' E 008°54'0 0.0
2016-Jul-29 15:34N 44°24' E 008°54'0 0.0
2016-Jul-29 14:33N 44°24' E 008°54'0 0.0
2016-Jul-29 13:34N 44°24' E 008°54'0 0.0
2016-Jul-29 12:33N 44°24' E 008°54'0 0.0
2016-Jul-29 11:33N 44°24' E 008°54'0 0.0
2016-Jul-29 10:33N 44°24' E 008°54'0 0.0
2016-Jul-29 09:33N 44°24' E 008°54'0 0.0
2016-Jul-29 08:33N 44°24' E 008°54'0 0.0
2016-Jul-29 07:33N 44°24' E 008°54'0 0.0
2016-Jul-29 06:33N 44°24' E 008°54'0 0.0
2016-Jul-29 05:33N 44°24' E 008°54'1 0.6
2016-Jul-29 04:33N 44°24' E 008°54'5 4.7
2016-Jul-29 03:34N 44°20' E 008°59'7 7.1
2016-Jul-29 02:34N 44°15' E 008°51'1211.8
2016-Jul-29 01:33N 44°08' E 008°39'1916.5
2016-Jul-29 00:23N 43°55' E 008°19'1316.3
2016-Jul-28 23:33N 43°46' E 008°05'1616.3
2016-Jul-28 22:33N 43°35' E 007°47'1616.2
2016-Jul-28 21:33N 43°25' E 007°30'1716.5
2016-Jul-28 20:33N 43°14' E 007°13'1222.1
2016-Jul-28 20:00N 43°06' E 007°00'410.0 110 / 91027.5 5.4 1.525.117.3
2016-Jul-28 19:34N 43°03' E 006°56'1916.8
2016-Jul-28 18:24N 42°50' E 006°36'1616.8
2016-Jul-28 17:28N 42°40' E 006°20'2317.0
2016-Jul-28 16:05N 42°24' E 005°56'1517.2
2016-Jul-28 15:12N 42°14' E 005°40'11616.7
2016-Jul-28 08:16N 40°58' E 003°44'1521.5
2016-Jul-28 07:33N 40°48' E 003°28'2720.3
2016-Jul-28 06:12N 40°30' E 003°01'1116.9
2016-Jul-28 05:33N 40°23' E 002°50'1717.0
2016-Jul-28 04:33N 40°12' E 002°33'1717.1
2016-Jul-28 03:33N 40°01' E 002°16'1717.0
2016-Jul-28 02:33N 39°49' E 001°60'2017.2
2016-Jul-28 01:24N 39°37' E 001°40'1517.2
2016-Jul-28 00:33N 39°27' E 001°26'2317.3
2016-Jul-27 23:12N 39°07' E 001°09'1116.8
2016-Jul-27 22:33N 38°58' E 001°02'1716.9
2016-Jul-27 21:33N 38°43' E 000°51'1616.7
2016-Jul-27 20:33N 38°29' E 000°40'1716.8
2016-Jul-27 19:33N 38°15' E 000°29'1817.6
2016-Jul-27 18:33N 37°60' E 000°17'1817.9
2016-Jul-27 17:33N 37°44' E 000°06'1717.1
2016-Jul-27 16:33N 37°30' W 000°05'1717.0
2016-Jul-27 15:33N 37°15' W 000°16'1716.7
2016-Jul-27 14:33N 37°05' W 000°33'1717.3
2016-Jul-27 13:33N 36°57' W 000°52'2517.5
2016-Jul-27 12:06N 36°44' W 001°20'1017.6
2016-Jul-27 11:32N 36°40' W 001°30'18216.6
2016-Jul-27 00:33N 36°01' W 005°12'1616.5
2016-Jul-26 23:33N 35°56' W 005°31'2114.9
2016-Jul-26 22:08N 35°53' W 005°57'5916.4
2016-Jul-26 18:33N 36°02' W 007°09'1817.6
2016-Jul-26 17:33N 36°07' W 007°29'1717.5
2016-Jul-26 16:33N 36°12' W 007°50'1817.7
2016-Jul-26 15:33N 36°18' W 008°11'1817.8
2016-Jul-26 14:33N 36°23' W 008°32'1817.7
2016-Jul-26 13:34N 36°27' W 008°53'1817.5
2016-Jul-26 12:33N 36°32' W 009°15'1717.3
2016-Jul-26 11:33N 36°44' W 009°30'1717.4
2016-Jul-26 10:33N 36°60' W 009°38'1817.8
2016-Jul-26 09:33N 37°17' W 009°43'1817.7
2016-Jul-26 08:33N 37°35' W 009°48'1818.2
2016-Jul-26 07:33N 37°52' W 009°52'1818.1
2016-Jul-26 06:33N 38°10' W 009°57'1818.3
2016-Jul-26 05:33N 38°28' W 010°02'1817.9
2016-Jul-26 04:33N 38°46' W 010°07'1817.9
2016-Jul-26 03:33N 39°03' W 010°07'1818.0
2016-Jul-26 02:33N 39°21' W 010°07'1818.2
2016-Jul-26 01:33N 39°40' W 010°07'1817.9
2016-Jul-26 00:33N 39°58' W 010°07'3618.0
2016-Jul-25 22:32N 40°34' W 010°08'53218.2
2016-Jul-24 17:17N 48°53' W 005°48'1315.6
2016-Jul-24 16:28N 48°60' W 005°32'1415.7
2016-Jul-24 15:33N 49°08' W 005°13'6616.5
2016-Jul-24 11:33N 49°41' W 003°46'1514.7
2016-Jul-24 10:30N 49°49' W 003°25'1414.1
2016-Jul-24 09:31N 49°55' W 003°06'1414.2
2016-Jul-24 08:33N 50°01' W 002°47'1515.1
2016-Jul-24 07:33N 50°05' W 002°24'1915.9
2016-Jul-24 06:20N 50°00' W 001°55'1818.6
2016-Jul-24 05:23N 49°53' W 001°30'1719.8
2016-Jul-24 04:33N 49°48' W 001°06'1818.5
2016-Jul-24 03:33N 49°42' W 000°39'1717.2
2016-Jul-24 02:34N 49°34' W 000°15'1514.7
2016-Jul-24 01:33N 49°29' E 000°06'2 2.0
2016-Jul-24 00:34N 49°28' E 000°09'0 0.0
2016-Jul-23 23:32N 49°28' E 000°09'0 0.0
2016-Jul-23 22:32N 49°28' E 000°09'0 0.0
2016-Jul-23 21:32N 49°28' E 000°09'0 0.0
2016-Jul-23 20:32N 49°28' E 000°09'0 0.0
2016-Jul-23 19:32N 49°28' E 000°09'0 0.0
2016-Jul-23 18:32N 49°28' E 000°09'0 0.0
2016-Jul-23 17:32N 49°28' E 000°09'0 0.0
2016-Jul-23 16:32N 49°28' E 000°09'0 0.0
2016-Jul-23 15:32N 49°28' E 000°09'0 0.0
2016-Jul-23 14:32N 49°28' E 000°09'0 0.0
2016-Jul-23 13:32N 49°28' E 000°09'0 0.0
2016-Jul-23 12:32N 49°28' E 000°09'4 3.7
2016-Jul-23 11:34N 49°29' E 000°04'1111.5
2016-Jul-23 10:33N 49°33' W 000°13'1312.6
2016-Jul-23 09:33N 49°42' W 000°27'1313.2
2016-Jul-23 08:33N 49°55' W 000°25'1515.3
2016-Jul-23 07:33N 50°10' W 000°18'1515.4
2016-Jul-23 06:33N 50°24' W 000°10'3316.3
2016-Jul-23 04:33N 50°37' E 000°37'1616.3
2016-Jul-23 03:33N 50°47' E 000°57'1514.8
2016-Jul-23 02:33N 50°57' E 001°15'1313.1
2016-Jul-23 01:33N 51°05' E 001°31'1212.3
2016-Jul-23 00:33N 51°14' E 001°45'1515.0
2016-Jul-22 23:33N 51°27' E 001°55'1716.8
2016-Jul-22 22:33N 51°40' E 002°13'1716.8
2016-Jul-22 21:33N 51°52' E 002°32'1717.2
2016-Jul-22 20:33N 52°05' E 002°50'1717.1
2016-Jul-22 19:33N 52°18' E 003°09'1616.2
2016-Jul-22 18:33N 52°31' E 003°23'1916.6
2016-Jul-22 17:24N 52°47' E 003°43'1616.6
2016-Jul-22 16:27N 52°59' E 003°60'1617.3
2016-Jul-22 15:33N 53°09' E 004°20'1818.0
2016-Jul-22 14:33N 53°25' E 004°33'1818.4
2016-Jul-22 13:33N 53°34' E 004°59'1818.5
2016-Jul-22 12:33N 53°40' E 005°29'1717.5
2016-Jul-22 11:33N 53°45' E 005°57'1615.6
2016-Jul-22 10:33N 53°50' E 006°22'1514.7
2016-Jul-22 09:33N 53°54' E 006°46'1514.5
2016-Jul-22 08:33N 53°57' E 007°10'1515.3
2016-Jul-22 07:33N 54°01' E 007°36'2914.4
2016-Jul-22 05:33N 53°59' E 008°24'1616.4
2016-Jul-22 04:33N 53°50' E 008°48'1414.3
2016-Jul-22 03:33N 53°53' E 009°12'1211.9
2016-Jul-22 02:33N 53°44' E 009°26'1010.4
2016-Jul-22 01:34N 53°36' E 009°36'9 8.7
2016-Jul-22 00:34N 53°33' E 009°50'3 2.8
2016-Jul-21 23:31N 53°32' E 009°55'0 0.0
2016-Jul-21 22:31N 53°32' E 009°55'0 0.0
2016-Jul-21 21:31N 53°32' E 009°55'0 0.0
2016-Jul-21 20:31N 53°32' E 009°55'0 0.0
2016-Jul-21 19:31N 53°32' E 009°55'0 0.0
2016-Jul-21 18:31N 53°32' E 009°55'0 0.0
2016-Jul-21 17:31N 53°32' E 009°55'0 0.0
2016-Jul-21 16:31N 53°32' E 009°55'0 0.0
2016-Jul-21 15:31N 53°32' E 009°55'0 0.0
2016-Jul-21 14:31N 53°32' E 009°55'0 0.0
2016-Jul-21 13:31N 53°32' E 009°55'0 0.0
2016-Jul-21 12:34N 53°32' E 009°55'0 0.0
2016-Jul-21 11:33N 53°32' E 009°55'0 0.0
2016-Jul-21 10:33N 53°32' E 009°55'0 0.0
2016-Jul-21 09:33N 53°32' E 009°55'0 0.0
2016-Jul-21 08:33N 53°32' E 009°55'0 0.0
2016-Jul-21 07:33N 53°32' E 009°55'0 0.0
2016-Jul-21 06:33N 53°32' E 009°55'0 0.0
2016-Jul-21 05:33N 53°32' E 009°55'0 0.0
2016-Jul-21 04:33N 53°32' E 009°55'0 0.0
2016-Jul-21 03:33N 53°32' E 009°55'0 0.0
2016-Jul-21 02:33N 53°32' E 009°55'0 0.0
2016-Jul-21 01:33N 53°32' E 009°55'0 0.0
2016-Jul-21 00:33N 53°32' E 009°55'0 0.0
2016-Jul-20 23:33N 53°32' E 009°55'0 0.0
2016-Jul-20 22:33N 53°32' E 009°55'0 0.0
2016-Jul-20 21:33N 53°32' E 009°55'0 0.0
2016-Jul-20 20:33N 53°32' E 009°55'0 0.0
2016-Jul-20 19:33N 53°32' E 009°55'0 0.0
2016-Jul-20 18:33N 53°32' E 009°55'0 0.0
2016-Jul-20 17:33N 53°32' E 009°55'0 0.0
2016-Jul-20 16:33N 53°32' E 009°55'0 0.0
2016-Jul-20 15:33N 53°32' E 009°55'0 0.0
2016-Jul-20 14:33N 53°32' E 009°55'0 0.0
2016-Jul-20 13:33N 53°32' E 009°55'0 0.0
2016-Jul-20 12:34N 53°32' E 009°55'9 8.8
2016-Jul-20 11:34N 53°34' E 009°40'1312.9
2016-Jul-20 10:34N 53°44' E 009°26'1413.7
2016-Jul-20 09:34N 53°53' E 009°08'1312.7
2016-Jul-20 08:33N 53°50' E 008°47'1413.6
2016-Jul-20 07:33N 53°59' E 008°28'1514.7
2016-Jul-20 06:34N 53°59' E 008°04'1615.5
2016-Jul-20 05:34N 53°57' E 007°37'1818.2
2016-Jul-20 04:34N 53°52' E 007°07'1818.2
2016-Jul-20 03:34N 53°48' E 006°38'  

Dump ship's entire track history